Keysville, GA (30811)

7:55 AM EDT on September 04, 2015 (GMT -0400)
Tobacco Road | | Change Station
CLOSE
Current Station
Personal Weather Station
Location: Gracewood, GA
Elevation: 295 ft
Nearby Weather Stations

Elev 295 ft 33.37 °N, 82.03 °W | Updated 4 seconds ago

Partly Cloudy
Partly Cloudy
72.5 °F
Feels Like 72.5 °F
N
0.0
Wind Variable Wind from South
Gusts 0.0 mph

Today
High -- | Low -- °F
--% Chance of Precip.
Yesterday
High -- | Low -- °F
Precip. -- in
7:05 AM 7:50 PM
Waning Gibbous, 60% visible
Pressure 29.96 in
Visibility 4.0 miles
Clouds Scattered Clouds 400 ft
Dew Point 70 °F
Humidity 93%
Rainfall 0.00 in
Snow Depth Not available.
UV 0 out of 12
Pollen 8.80 out of 12
Air Quality Not available.
Flu Activity Not available.
METAR KAGS 041153Z 00000KT 4SM BR SCT004 22/22 A2996 RMK AO2 SLP144 T02220222 10228 20206 53011
Pressure 29.96 in
Visibility 4.0 miles
Clouds Scattered Clouds 400 ft
Dew Point 70 °F
Humidity 93%
Rainfall 0.00 in
Snow Depth Not available.
UV 0 out of 12
Pollen 8.80 out of 12
Air Quality Not available.
Flu Activity Not available.
METAR KAGS 041153Z 00000KT 4SM BR SCT004 22/22 A2996 RMK AO2 SLP144 T02220222 10228 20206 53011

10-Day Weather Forecast

×

Almanac

Astronomy

Sep. 04, 2015 Rise Set
Actual Time
Civil Twilight
Nautical Twilight
Astronomical Twilight
Moon
Length of Visible Light
Length of Day
Tomorrow will be .
, % of the Moon is Illuminated

Today's Extremes

State Highs State Lows

Community

WunderPhotos

Upload Photos

1,852,157 photos uploaded!

WunderBlogs® & News

Nearby

Air Quality

  Air Quality AQ Index Pollutant
Not available.

Snow Depth

Station Depth Elevation

Earthquake Activity

City Distance Mag. Time & Date
Minimum magnitude displayed is 2.5.

Coastal Water Temperatures

Place Temperature

Stations

Nearby Weather Stations

Station Location Temp. Windchill Dew Point Humidity Wind Precip. Elev Updated Type